Yuma MCAS/Yuma International Airport
KNYL : now visible

Airfield :











YOU CAN JOIN US ON...

 
LOGIN :

Register | Disclaimer

   EN    FR    IT 

 









Legend :    VFR   Marginal VFR   IFR   Intensive IFR   Very Intensive IFR
Visi :
Ceiling :
>= 8 km
>= 3000ft
5 to 8 km
1000 to 3000 ft
1500m to 5 km
500 to 1000 ft
800 to 1500m
200 to 500 ft
< 800m
< 200 ft
Symbols :   Thunderstorms  Fog  Heavy snow  Heavy precipitations  Wind > 20 kt







- Airport Elevation : 213 ft
- IATA code : YUM


KNYL - Yuma MCAS/Yuma International

CURRENT METAR :
  • 211657Z AUTO 10003KT 10SM FU CLR 28/00 A2987 RMK AO2 SLP111 T02830000

EXPIRED METARs :
  • 211557Z AUTO 06003KT 10SM FU CLR 26/03 A2987 RMK AO2 SLP110 T02610033
  • 211457Z AUTO 00000KT 10SM FU CLR 23/05 A2984 RMK AO2 SLP103 T02280050 51011

TAF TAF KNYL
Valid from the 21 at 15:00 until the 22 at 15:00 UTC


2115/2215 VRB05KT 9999 SKC QNH2974INS AUTOMATED SENSOR METWATCH 2115 TIL 2314 T34/2122Z T19/2213Z
No reported NOTAMs for that airfield.



MET'MAP, your aeronautical weather chart ! - Copyright ORBIFLY December 2007 - Disclaimer

ORBIFLY MET'MAP TEAM :

Programming & Development : Alexandra Zaïnal
Concept & Development : Baudouin d'Aumeries
Co-Development & Prog : Marc-Olivier Méhu
Technical & hardware support : Manuel Goepfert

Contact : metmap@orbifly.com




SOURCES & CREDITS :

   NOAA       Earth
Advisory